createdAt,value
2018-09-12T04:59:49.533Z,99.40
2018-09-12T05:01:53.320Z,99.40
2018-09-12T05:03:57.164Z,99.40
2018-09-12T05:06:01.076Z,99.80
2018-09-12T05:08:05.431Z,99.90
2018-09-12T05:10:10.451Z,99.90
2018-09-12T05:12:14.399Z,99.90
2018-09-12T05:14:18.619Z,99.90
2018-09-12T05:16:22.607Z,99.90
2018-09-12T05:18:26.532Z,99.90
2018-09-12T05:20:30.384Z,99.90
2018-09-12T05:22:34.652Z,99.90
2018-09-12T05:24:38.772Z,99.90
2018-09-12T05:26:43.122Z,99.90
2018-09-12T05:28:47.172Z,99.90
2018-09-12T05:32:54.748Z,99.90
2018-09-12T05:34:58.723Z,99.90
2018-09-12T05:37:02.944Z,99.90
2018-09-12T05:39:09.833Z,99.90
2018-09-12T05:41:13.739Z,99.90
2018-09-12T05:43:17.827Z,99.90
2018-09-12T05:47:26.079Z,99.90
2018-09-12T05:49:30.286Z,99.90
2018-09-12T05:51:34.332Z,99.90
2018-09-12T05:53:38.471Z,99.90
2018-09-12T05:55:42.756Z,99.90
2018-09-12T05:57:46.776Z,99.90
2018-09-12T05:59:50.720Z,99.90
2018-09-12T06:01:54.630Z,99.90
2018-09-12T06:03:58.669Z,99.90
2018-09-12T06:06:02.703Z,99.90
2018-09-12T06:08:06.893Z,99.90
2018-09-12T06:10:10.983Z,99.90
2018-09-12T06:12:14.828Z,99.90
2018-09-12T06:14:18.979Z,99.90
2018-09-12T06:16:22.998Z,99.90
2018-09-12T06:18:27.121Z,99.90
2018-09-12T06:20:31.161Z,99.90
2018-09-12T06:22:39.759Z,99.90
2018-09-12T06:24:43.784Z,99.90
2018-09-12T06:26:48.479Z,99.90
2018-09-12T06:28:52.472Z,99.90
2018-09-12T06:30:56.476Z,99.90
2018-09-12T06:33:00.475Z,99.90
2018-09-12T06:35:04.751Z,99.90
2018-09-12T06:37:08.840Z,99.90
2018-09-12T06:39:13.628Z,99.90
2018-09-12T06:41:17.667Z,99.90
2018-09-12T06:43:21.596Z,99.90
2018-09-12T06:45:25.626Z,99.90
2018-09-12T06:47:29.561Z,99.90
2018-09-12T06:49:33.678Z,99.90
2018-09-12T06:53:42.618Z,99.90
2018-09-12T06:55:46.564Z,99.90
2018-09-12T06:59:54.123Z,99.90
2018-09-12T07:01:58.060Z,99.90
2018-09-12T07:04:02.104Z,99.90
2018-09-12T07:06:06.220Z,99.90
2018-09-12T07:08:10.514Z,99.90
2018-09-12T07:10:14.606Z,99.90
2018-09-12T07:12:18.712Z,99.90
2018-09-12T07:14:22.654Z,99.90
2018-09-12T07:16:26.584Z,99.90
2018-09-12T07:18:30.575Z,99.90
2018-09-12T07:20:34.620Z,99.90
2018-09-12T07:22:38.692Z,99.90
2018-09-12T07:24:42.577Z,99.90
2018-09-12T07:26:46.481Z,99.90
2018-09-12T07:28:50.628Z,99.90
2018-09-12T07:30:54.445Z,99.90
2018-09-12T07:32:58.284Z,99.90
2018-09-12T07:35:02.272Z,99.90
2018-09-12T07:37:06.565Z,99.90
2018-09-12T07:39:12.337Z,99.90
2018-09-12T07:41:16.296Z,99.90
2018-09-12T07:43:20.136Z,99.90
2018-09-12T07:45:23.973Z,99.90
2018-09-12T07:47:28.033Z,99.90
2018-09-12T07:49:33.323Z,99.90
2018-09-12T07:51:37.801Z,99.90
2018-09-12T07:53:41.815Z,99.90
2018-09-12T07:55:45.819Z,99.90
2018-09-12T07:57:49.795Z,99.90
2018-09-12T07:59:53.996Z,99.90
2018-09-12T08:01:57.979Z,99.90
2018-09-12T08:06:05.539Z,99.90
2018-09-12T08:16:24.311Z,99.90
2018-09-12T08:18:28.392Z,99.80
2018-09-12T08:20:32.434Z,99.90
2018-09-12T08:22:36.811Z,99.90
2018-09-12T08:24:40.810Z,99.90
2018-09-12T08:26:44.872Z,99.90
2018-09-12T08:30:52.676Z,99.90
2018-09-12T08:32:56.591Z,99.90
2018-09-12T08:35:00.558Z,99.90
2018-09-12T08:37:04.812Z,99.90
2018-09-12T08:39:09.441Z,99.90
2018-09-12T08:51:32.660Z,99.70
2018-09-12T08:53:36.710Z,99.90
2018-09-12T08:57:44.435Z,99.30
2018-09-12T08:59:48.251Z,99.70
2018-09-12T09:01:52.135Z,99.90
2018-09-12T09:03:56.076Z,99.70
2018-09-12T09:05:59.963Z,99.60
2018-09-12T09:08:05.149Z,99.60
2018-09-12T09:10:09.405Z,99.80
2018-09-12T09:12:13.285Z,99.40
2018-09-12T09:14:17.355Z,99.40
2018-09-12T09:16:21.337Z,99.40
2018-09-12T09:18:25.337Z,99.10
2018-09-12T09:20:29.287Z,99.00
2018-09-12T09:22:33.863Z,99.40
2018-09-12T09:24:37.832Z,99.20
2018-09-12T09:26:42.351Z,98.90
2018-09-12T09:28:46.259Z,99.10
2018-09-12T09:30:50.292Z,99.00
2018-09-12T09:32:54.243Z,98.50
2018-09-12T09:34:58.354Z,96.60
2018-09-12T09:39:10.125Z,99.90
2018-09-12T09:41:15.245Z,97.60
2018-09-12T09:43:19.716Z,97.50
2018-09-12T09:45:23.781Z,97.60
2018-09-12T09:47:27.784Z,97.60
2018-09-12T09:53:41.880Z,97.70
2018-09-12T09:55:46.097Z,99.90
2018-09-12T09:57:50.057Z,99.90
2018-09-12T09:59:54.328Z,98.00
2018-09-12T10:03:02.512Z,97.80
2018-09-12T10:05:14.005Z,99.90
2018-09-12T10:09:29.990Z,98.10
2018-09-12T10:11:35.563Z,98.40
2018-09-12T10:13:39.641Z,97.70
2018-09-12T10:15:43.717Z,98.10
2018-09-12T10:17:47.599Z,98.20
2018-09-12T10:19:51.486Z,97.90
2018-09-12T10:21:55.525Z,97.90
2018-09-12T10:23:59.859Z,97.90
2018-09-12T10:26:04.132Z,97.50
2018-09-12T10:28:08.117Z,97.70
2018-09-12T10:30:12.500Z,97.50
2018-09-12T10:32:16.584Z,97.70
2018-09-12T10:34:20.486Z,97.90
2018-09-12T10:36:24.496Z,98.20
2018-09-12T10:38:28.486Z,98.30
2018-09-12T10:40:32.527Z,98.50
2018-09-12T10:42:37.034Z,98.60
2018-09-12T10:44:41.470Z,98.80
2018-09-12T10:46:45.498Z,99.30
2018-09-12T10:48:49.531Z,99.10
2018-09-12T10:50:53.447Z,99.20
2018-09-12T10:52:57.310Z,99.20
2018-09-12T10:55:01.275Z,99.10
2018-09-12T10:57:05.455Z,99.10
2018-09-12T10:59:09.518Z,99.20
2018-09-12T11:01:13.562Z,99.10
2018-09-12T11:03:17.585Z,97.60
2018-09-12T11:05:21.544Z,97.50
2018-09-12T11:07:25.475Z,97.80
2018-09-12T11:09:29.384Z,97.20
2018-09-12T11:11:33.494Z,97.10
2018-09-12T11:13:37.931Z,97.00
2018-09-12T11:15:42.256Z,97.30
2018-09-12T11:17:46.203Z,97.70
2018-09-12T11:19:50.914Z,97.80
2018-09-12T11:21:54.877Z,98.10
2018-09-12T11:23:58.890Z,98.60
2018-09-12T11:26:02.819Z,99.00
2018-09-12T11:28:07.039Z,99.00
2018-09-12T11:30:11.044Z,98.70
2018-09-12T11:32:15.144Z,98.80
2018-09-12T11:34:18.987Z,98.70
2018-09-12T11:36:23.028Z,98.20
2018-09-12T11:38:26.930Z,98.10
2018-09-12T11:40:30.877Z,97.60
2018-09-12T11:42:34.923Z,97.10
2018-09-12T11:44:38.827Z,97.20
2018-09-12T11:46:42.715Z,96.40
2018-09-12T11:48:46.746Z,96.50
2018-09-12T11:50:50.724Z,96.80
2018-09-12T11:52:54.786Z,96.90
2018-09-12T11:54:58.899Z,96.60
2018-09-12T11:57:04.162Z,96.80
2018-09-12T11:59:08.336Z,97.30
2018-09-12T12:01:12.395Z,97.80
2018-09-12T12:03:16.407Z,97.90
2018-09-12T12:05:20.346Z,98.70
2018-09-12T12:07:24.327Z,98.50
2018-09-12T12:09:28.332Z,98.70
2018-09-12T12:11:32.511Z,98.70
2018-09-12T12:13:36.857Z,98.70
2018-09-12T12:15:41.364Z,98.30
2018-09-12T12:17:45.356Z,98.10
2018-09-12T12:19:49.308Z,98.10
2018-09-12T12:21:53.302Z,98.30
2018-09-12T12:23:57.235Z,98.20
2018-09-12T12:28:07.292Z,98.10
2018-09-12T12:30:11.727Z,98.20
2018-09-12T12:32:15.905Z,98.10
2018-09-12T12:34:19.778Z,97.90
2018-09-12T12:36:23.827Z,99.90
2018-09-12T12:38:27.767Z,98.00
2018-09-12T12:40:32.743Z,97.90
2018-09-12T12:42:37.997Z,97.90
2018-09-12T12:44:42.193Z,97.60
2018-09-12T12:46:46.178Z,97.60
2018-09-12T12:48:50.108Z,96.60
2018-09-12T12:50:54.226Z,98.80
2018-09-12T12:52:58.159Z,95.80
2018-09-12T12:55:02.304Z,95.90
2018-09-12T12:57:06.740Z,95.70
2018-09-12T12:59:10.738Z,95.30
2018-09-12T13:01:16.715Z,95.20
2018-09-12T13:03:20.733Z,95.20
2018-09-12T13:05:24.699Z,95.40
2018-09-12T13:07:28.669Z,95.30
2018-09-12T13:09:32.820Z,95.30
2018-09-12T13:11:37.099Z,95.50
2018-09-12T13:13:41.330Z,95.60
2018-09-12T13:15:45.286Z,95.50
2018-09-12T13:17:49.264Z,95.80
2018-09-12T13:19:53.195Z,95.90
2018-09-12T13:21:57.258Z,94.90
2018-09-12T13:24:01.207Z,95.20
2018-09-12T13:26:05.747Z,95.00
2018-09-12T13:28:10.097Z,94.90
2018-09-12T13:30:14.130Z,94.50
2018-09-12T13:32:18.120Z,94.60
2018-09-12T13:34:23.187Z,95.00
2018-09-12T13:36:27.258Z,95.00
2018-09-12T13:38:31.497Z,95.20
2018-09-12T13:40:35.771Z,95.00
2018-09-12T13:42:41.230Z,95.00
2018-09-12T13:44:45.200Z,95.00
2018-09-12T13:46:49.213Z,94.60
2018-09-12T13:48:53.234Z,94.70
2018-09-12T13:50:57.516Z,94.90
2018-09-12T13:53:02.628Z,95.00
2018-09-12T13:55:06.793Z,94.90
2018-09-12T13:57:11.294Z,95.00
2018-09-12T13:59:15.169Z,95.00
2018-09-12T14:01:19.212Z,95.00
2018-09-12T14:03:23.218Z,95.00
2018-09-12T14:05:27.160Z,95.60
2018-09-12T14:07:31.248Z,95.00
2018-09-12T14:09:35.433Z,94.70
2018-09-12T14:11:39.605Z,95.00
2018-09-12T14:13:43.615Z,95.10
2018-09-12T14:15:47.652Z,94.80
2018-09-12T14:17:52.228Z,94.80
2018-09-12T14:19:56.177Z,94.70
2018-09-12T14:22:00.292Z,94.70
2018-09-12T14:24:04.483Z,94.50
2018-09-12T14:26:09.635Z,94.40
2018-09-12T14:28:13.898Z,94.20
2018-09-12T14:30:17.893Z,94.30
2018-09-12T14:32:21.772Z,94.20
2018-09-12T14:34:25.668Z,94.00
2018-09-12T14:36:29.635Z,94.10
2018-09-12T14:38:33.742Z,94.10
2018-09-12T14:40:37.755Z,93.70
2018-09-12T14:42:41.958Z,93.70
2018-09-12T14:44:45.885Z,93.80
2018-09-12T14:46:49.831Z,93.70
2018-09-12T14:48:53.677Z,93.80
2018-09-12T14:50:57.560Z,93.60
2018-09-12T14:53:02.129Z,93.50
2018-09-12T14:55:06.610Z,93.30
2018-09-12T14:57:10.784Z,93.40
2018-09-12T14:59:14.881Z,93.50
2018-09-12T15:01:18.884Z,93.10
2018-09-12T15:03:23.357Z,93.20
2018-09-12T15:05:27.303Z,93.60
2018-09-12T15:07:31.678Z,94.10
2018-09-12T15:09:35.687Z,94.60
2018-09-12T15:11:40.294Z,94.90
2018-09-12T15:13:44.274Z,95.10
2018-09-12T15:15:48.094Z,95.20
2018-09-12T15:17:52.132Z,95.10
2018-09-12T15:19:56.120Z,94.90
2018-09-12T15:21:59.920Z,94.60
2018-09-12T15:24:04.231Z,94.60
2018-09-12T15:26:08.516Z,94.50
2018-09-12T15:28:12.645Z,94.30
2018-09-12T15:30:16.531Z,94.70
2018-09-12T15:32:20.523Z,94.40
2018-09-12T15:34:24.554Z,94.10
2018-09-12T15:36:28.516Z,93.90
2018-09-12T15:38:33.941Z,94.00
2018-09-12T15:40:38.111Z,94.10
2018-09-12T15:42:42.263Z,94.20
2018-09-12T15:44:46.456Z,94.30
2018-09-12T15:46:50.495Z,94.20
2018-09-12T15:48:54.457Z,94.40
2018-09-12T15:50:58.494Z,93.60
2018-09-12T15:53:02.616Z,93.70
2018-09-12T15:55:06.621Z,93.80
2018-09-12T15:57:10.786Z,93.80
2018-09-12T15:59:14.900Z,94.00
2018-09-12T16:01:18.819Z,94.00
2018-09-12T16:03:22.906Z,93.60
2018-09-12T16:05:26.815Z,93.20
2018-09-12T16:07:30.827Z,93.00
2018-09-12T16:09:35.156Z,93.40
2018-09-12T16:11:39.574Z,92.80
2018-09-12T16:13:43.443Z,92.90
2018-09-12T16:15:47.373Z,93.10
2018-09-12T16:17:51.352Z,93.30
2018-09-12T16:21:19.720Z,93.30
2018-09-12T16:23:23.847Z,93.30
2018-09-12T16:25:27.783Z,93.40
2018-09-12T16:27:31.761Z,93.40
2018-09-12T16:29:35.900Z,93.60
2018-09-12T16:31:40.096Z,93.60
2018-09-12T16:33:44.015Z,93.50
2018-09-12T16:35:47.828Z,93.50
2018-09-12T16:37:51.695Z,93.60
2018-09-12T16:39:55.715Z,93.60
2018-09-12T16:41:59.564Z,93.30
2018-09-12T16:44:04.316Z,93.50
2018-09-12T16:46:08.732Z,93.80
2018-09-12T16:48:13.193Z,93.70
2018-09-12T16:50:17.226Z,93.60
2018-09-12T16:52:21.435Z,93.80
2018-09-12T16:54:25.311Z,93.80
2018-09-12T16:56:29.532Z,93.80
2018-09-12T16:58:34.188Z,93.70
2018-09-12T17:00:38.238Z,94.00
2018-09-12T17:02:42.923Z,93.80
2018-09-12T17:04:47.064Z,93.80
2018-09-12T17:06:52.068Z,93.90
2018-09-12T17:08:56.163Z,93.80
2018-09-12T17:11:00.069Z,94.10
2018-09-12T17:13:05.240Z,94.30
2018-09-12T17:15:09.428Z,94.10
2018-09-12T17:17:13.435Z,93.90
2018-09-12T17:19:17.412Z,94.10
2018-09-12T17:21:21.371Z,93.80
2018-09-12T17:23:25.361Z,93.90
2018-09-12T17:25:29.181Z,93.90
2018-09-12T17:27:33.632Z,94.00
2018-09-12T17:29:37.945Z,93.60
2018-09-12T17:31:42.204Z,93.70
2018-09-12T17:33:46.075Z,93.60
2018-09-12T17:35:50.022Z,93.70
2018-09-12T17:37:54.091Z,93.20
2018-09-12T17:39:58.017Z,93.40
2018-09-12T17:42:02.623Z,93.30
2018-09-12T17:44:07.681Z,93.30
2018-09-12T17:46:12.019Z,93.50
2018-09-12T17:48:16.011Z,93.50
2018-09-12T17:50:20.024Z,93.50
2018-09-12T17:52:23.898Z,93.50
2018-09-12T17:54:27.900Z,93.70
2018-09-12T17:56:32.162Z,93.70
2018-09-12T17:58:36.186Z,94.10
2018-09-12T18:00:40.586Z,93.80
2018-09-12T18:02:44.462Z,93.80
2018-09-12T18:04:48.586Z,93.90
2018-09-12T18:06:52.624Z,94.00
2018-09-12T18:08:56.584Z,94.10
2018-09-12T18:11:00.555Z,94.10
2018-09-12T18:13:04.564Z,94.00
2018-09-12T18:15:09.831Z,94.10
2018-09-12T18:17:13.819Z,94.30
2018-09-12T18:19:17.795Z,94.40
2018-09-12T18:21:21.801Z,94.40
2018-09-12T18:23:25.754Z,94.60
2018-09-12T18:25:29.905Z,94.70
2018-09-12T18:27:35.153Z,94.50
2018-09-12T18:29:39.298Z,94.70
2018-09-12T18:31:43.253Z,94.50
2018-09-12T18:33:47.224Z,94.40
2018-09-12T18:35:51.241Z,94.40
2018-09-12T18:37:55.236Z,94.40
2018-09-12T18:39:59.255Z,94.40
2018-09-12T18:42:03.588Z,94.30
2018-09-12T18:44:08.143Z,94.20
2018-09-12T18:46:12.022Z,94.40
2018-09-12T18:48:15.985Z,94.30
2018-09-12T18:50:19.923Z,94.40
2018-09-12T18:52:24.813Z,94.40
2018-09-12T18:54:28.856Z,94.30
2018-09-12T18:56:33.890Z,94.40
2018-09-12T18:58:37.974Z,94.60
2018-09-12T19:00:42.524Z,94.50
2018-09-12T19:02:46.423Z,94.50
2018-09-12T19:04:50.319Z,94.40
2018-09-12T19:06:54.536Z,94.20
2018-09-12T19:08:58.311Z,94.30
2018-09-12T19:11:02.410Z,94.30
2018-09-12T19:13:06.771Z,94.10
2018-09-12T19:15:10.827Z,94.20
2018-09-12T19:17:14.852Z,94.20
2018-09-12T19:19:18.830Z,94.20
2018-09-12T19:21:23.794Z,94.30
2018-09-12T19:23:27.792Z,94.20
2018-09-12T19:25:31.971Z,94.30
2018-09-12T19:27:37.112Z,94.00
2018-09-12T19:29:42.612Z,94.00
2018-09-12T19:31:46.616Z,93.80
2018-09-12T19:33:50.642Z,93.90
2018-09-12T19:35:54.400Z,94.10
2018-09-12T19:37:58.382Z,93.90
2018-09-12T19:40:02.408Z,93.90
2018-09-12T19:42:07.468Z,94.10
2018-09-12T19:44:11.355Z,94.10
2018-09-12T19:46:15.178Z,94.00
2018-09-12T19:48:19.173Z,94.10
2018-09-12T19:50:23.147Z,94.00
2018-09-12T19:52:27.095Z,93.90
2018-09-12T19:54:31.259Z,93.90
2018-09-12T19:56:35.828Z,93.70
2018-09-12T19:58:39.925Z,93.90
2018-09-12T20:00:43.888Z,93.90
2018-09-12T20:02:47.925Z,93.90
2018-09-12T20:04:51.825Z,93.90
2018-09-12T20:06:55.792Z,93.90
2018-09-12T20:08:59.700Z,93.90
2018-09-12T20:11:04.223Z,93.70
2018-09-12T20:13:08.453Z,94.00
2018-09-12T20:15:12.494Z,93.90
2018-09-12T20:17:16.353Z,94.00
2018-09-12T20:19:20.368Z,94.00
2018-09-12T20:21:24.283Z,94.20
2018-09-12T20:23:29.357Z,94.20
2018-09-12T20:25:33.756Z,94.30
2018-09-12T20:27:37.875Z,94.20
2018-09-12T20:29:43.091Z,94.30
2018-09-12T20:31:47.179Z,94.70
2018-09-12T20:33:51.207Z,94.40
2018-09-12T20:35:55.090Z,94.30
2018-09-12T20:37:59.202Z,94.20
2018-09-12T20:40:03.533Z,94.20
2018-09-12T20:42:08.387Z,94.20
2018-09-12T20:44:12.435Z,94.10
2018-09-12T20:46:16.740Z,94.00
2018-09-12T20:48:20.686Z,94.30
2018-09-12T20:50:24.534Z,94.30
2018-09-12T20:52:28.495Z,94.30
2018-09-12T20:54:32.595Z,94.30
2018-09-12T20:56:36.777Z,94.30
2018-09-12T20:58:40.715Z,94.10
2018-09-12T21:00:44.804Z,94.20
2018-09-12T21:02:48.947Z,94.20
2018-09-12T21:04:52.941Z,94.20
2018-09-12T21:06:56.741Z,94.10
2018-09-12T21:09:00.648Z,94.20
2018-09-12T21:11:04.968Z,94.00
2018-09-12T21:13:09.239Z,94.10
2018-09-12T21:15:13.153Z,94.10
2018-09-12T21:17:17.389Z,94.20
2018-09-12T21:19:21.570Z,94.20
2018-09-12T21:21:25.564Z,94.30
2018-09-12T21:23:29.928Z,94.20
2018-09-12T21:25:34.173Z,94.20
2018-09-12T21:27:38.277Z,94.10
2018-09-12T21:29:42.412Z,94.10
2018-09-12T21:31:46.472Z,94.10
2018-09-12T21:33:50.589Z,93.90
2018-09-12T21:35:55.592Z,93.90
2018-09-12T21:37:59.630Z,94.00
2018-09-12T21:40:05.160Z,94.30
2018-09-12T21:42:09.356Z,93.90
2018-09-12T21:44:13.696Z,93.90
2018-09-12T21:46:18.029Z,93.80
2018-09-12T21:48:22.345Z,93.80
2018-09-12T21:50:26.172Z,93.70
2018-09-12T21:52:30.484Z,93.70
2018-09-12T21:54:35.353Z,93.90
2018-09-12T21:56:39.545Z,93.80
2018-09-12T21:58:43.638Z,93.90
2018-09-12T22:00:47.624Z,93.80
2018-09-12T22:02:51.783Z,93.70
2018-09-12T22:04:56.874Z,93.70
2018-09-12T22:07:02.696Z,93.60
2018-09-12T22:09:12.042Z,93.60
2018-09-12T22:11:15.956Z,93.70
2018-09-12T22:13:21.079Z,93.60
2018-09-12T22:15:25.261Z,93.60
2018-09-12T22:17:29.064Z,93.50
2018-09-12T22:19:33.283Z,93.60
2018-09-12T22:21:37.508Z,93.60
2018-09-12T22:23:41.943Z,93.50
2018-09-12T22:25:45.936Z,93.50
2018-09-12T22:27:50.059Z,93.60
2018-09-12T22:29:54.011Z,93.60
2018-09-12T22:31:57.888Z,93.50
2018-09-12T22:34:02.119Z,93.40
2018-09-12T22:36:07.032Z,93.50
2018-09-12T22:38:11.452Z,93.50
2018-09-12T22:40:15.459Z,93.60
2018-09-12T22:42:19.701Z,93.50
2018-09-12T22:44:23.923Z,93.60
2018-09-12T22:46:27.883Z,93.40
2018-09-12T22:48:32.524Z,93.40
2018-09-12T22:50:36.518Z,93.40
2018-09-12T22:52:40.719Z,93.40
2018-09-12T22:54:47.516Z,93.50
2018-09-12T22:56:51.475Z,93.50
2018-09-12T22:58:55.755Z,93.80
2018-09-12T23:00:59.953Z,93.90
2018-09-12T23:03:06.166Z,93.60
2018-09-12T23:05:10.699Z,93.60
2018-09-12T23:07:15.422Z,93.60
2018-09-12T23:09:19.465Z,93.50
2018-09-12T23:11:23.971Z,93.50
2018-09-12T23:13:27.866Z,93.50
2018-09-12T23:15:32.957Z,93.60
2018-09-12T23:17:40.259Z,93.60
2018-09-12T23:19:45.319Z,93.60
2018-09-12T23:21:50.204Z,93.60
2018-09-12T23:23:54.306Z,93.70
2018-09-12T23:25:58.534Z,93.60
2018-09-12T23:28:02.578Z,93.50
2018-09-12T23:30:06.696Z,93.60
2018-09-12T23:32:10.890Z,93.50
2018-09-12T23:34:15.996Z,93.60
2018-09-12T23:36:20.520Z,93.50
2018-09-12T23:38:24.405Z,93.60
2018-09-12T23:40:28.328Z,93.60
2018-09-12T23:42:32.462Z,93.40
2018-09-12T23:44:37.373Z,93.60
2018-09-12T23:46:43.401Z,93.60
2018-09-12T23:48:47.443Z,93.50
2018-09-12T23:50:51.822Z,93.60
2018-09-12T23:52:55.772Z,93.50
2018-09-12T23:54:59.976Z,93.50
2018-09-12T23:57:06.375Z,93.50
2018-09-12T23:59:14.823Z,93.60
